createdAt,value
2019-03-08T05:00:40.200Z,6.85
2019-03-08T05:01:41.333Z,6.84
2019-03-08T05:02:41.312Z,6.77
2019-03-08T05:03:41.312Z,6.79
2019-03-08T05:04:41.313Z,6.76
2019-03-08T05:05:41.291Z,6.71
2019-03-08T05:06:41.326Z,6.66
2019-03-08T05:07:41.271Z,6.73
2019-03-08T05:08:41.271Z,6.73
2019-03-08T05:09:41.370Z,6.76
2019-03-08T05:10:41.264Z,6.74
2019-03-08T05:11:41.308Z,6.64
2019-03-08T05:12:41.363Z,6.77
2019-03-08T05:13:41.275Z,6.71
2019-03-08T05:14:41.242Z,6.71
2019-03-08T05:15:41.226Z,6.80
2019-03-08T05:16:41.224Z,6.81
2019-03-08T05:17:41.230Z,6.84
2019-03-08T05:18:41.251Z,6.74
2019-03-08T05:19:41.203Z,6.89
2019-03-08T05:20:41.212Z,6.95
2019-03-08T05:21:41.211Z,6.85
2019-03-08T05:22:41.157Z,6.92
2019-03-08T05:23:41.148Z,7.07
2019-03-08T05:24:41.206Z,6.92
2019-03-08T05:25:41.152Z,7.07
2019-03-08T05:26:41.140Z,6.98
2019-03-08T05:27:41.148Z,7.03
2019-03-08T05:28:41.168Z,7.03
2019-03-08T05:29:41.144Z,6.97
2019-03-08T05:30:41.141Z,7.07
2019-03-08T05:31:41.123Z,7.06
2019-03-08T05:32:41.071Z,6.99
2019-03-08T05:33:41.095Z,6.97
2019-03-08T05:34:41.040Z,7.06
2019-03-08T05:35:41.094Z,7.05
2019-03-08T05:36:41.084Z,7.05
2019-03-08T05:37:41.053Z,7.10
2019-03-08T05:38:41.042Z,7.03
2019-03-08T05:39:41.013Z,7.03
2019-03-08T05:40:41.015Z,7.06
2019-03-08T05:41:41.011Z,7.06
2019-03-08T05:42:41.008Z,7.09
2019-03-08T05:43:40.992Z,7.17
2019-03-08T05:44:41.031Z,7.07
2019-03-08T05:45:41.041Z,7.06
2019-03-08T05:46:40.956Z,7.07
2019-03-08T05:47:41.002Z,7.21
2019-03-08T05:48:40.976Z,7.10
2019-03-08T05:49:41.004Z,7.13
2019-03-08T05:50:40.964Z,7.12
2019-03-08T05:51:40.990Z,7.17
2019-03-08T05:52:40.934Z,7.07
2019-03-08T05:53:40.937Z,7.09
2019-03-08T05:54:40.926Z,7.06
2019-03-08T05:55:40.918Z,7.13
2019-03-08T05:56:40.894Z,7.13
2019-03-08T05:57:40.908Z,7.15
2019-03-08T05:58:40.874Z,7.15
2019-03-08T05:59:40.864Z,7.13
2019-03-08T06:00:40.883Z,7.16
2019-03-08T06:01:40.887Z,7.13
2019-03-08T06:02:40.855Z,7.21
2019-03-08T06:03:40.833Z,7.16
2019-03-08T06:04:40.851Z,7.12
2019-03-08T06:05:40.842Z,7.17
2019-03-08T06:06:40.832Z,7.16
2019-03-08T06:07:40.813Z,7.15
2019-03-08T06:08:40.818Z,7.10
2019-03-08T06:09:40.808Z,7.07
2019-03-08T06:10:40.793Z,7.09
2019-03-08T06:11:40.795Z,7.13
2019-03-08T06:12:40.799Z,7.12
2019-03-08T06:13:40.816Z,7.12
2019-03-08T06:14:40.785Z,7.21
2019-03-08T06:15:40.844Z,7.13
2019-03-08T06:16:40.772Z,7.20
2019-03-08T06:17:40.746Z,7.12
2019-03-08T06:18:40.742Z,7.15
2019-03-08T06:19:40.758Z,7.13
2019-03-08T06:20:40.830Z,7.20
2019-03-08T06:21:40.758Z,7.24
2019-03-08T06:22:40.736Z,7.16
2019-03-08T06:23:40.713Z,7.17
2019-03-08T06:24:40.692Z,7.25
2019-03-08T06:25:41.774Z,7.27
2019-03-08T06:26:40.688Z,7.17
2019-03-08T06:27:40.724Z,7.20
2019-03-08T06:28:40.719Z,7.21
2019-03-08T06:29:40.702Z,7.27
2019-03-08T06:30:40.662Z,7.24
2019-03-08T06:31:40.661Z,7.23
2019-03-08T06:32:40.661Z,7.28
2019-03-08T06:33:40.642Z,7.27
2019-03-08T06:34:40.669Z,7.28
2019-03-08T06:35:40.654Z,7.24
2019-03-08T06:36:40.673Z,7.30
2019-03-08T06:37:40.663Z,7.31
2019-03-08T06:38:40.633Z,7.31
2019-03-08T06:39:40.602Z,7.27
2019-03-08T06:40:40.610Z,7.17
2019-03-08T06:41:40.616Z,7.28
2019-03-08T06:42:40.872Z,7.30
2019-03-08T06:43:40.625Z,7.31
2019-03-08T06:44:40.598Z,7.24
2019-03-08T06:45:40.613Z,7.27
2019-03-08T06:46:40.548Z,7.24
2019-03-08T06:47:40.533Z,7.30
2019-03-08T06:48:40.697Z,7.28
